Time;durP1;ratioP1;P1;durP2;ratioP2;P2;SDS_P1;SDS_P2;PMS_P1;PMS_P2;Temp;Humidity;BMP_temperature;BMP_pressure;BME280_temperature;BME280_humidity;BME280_pressure;Samples;Min_cycle;Max_cycle;Signal;HPM_P1;HPM_P2
2022/04/19 00:01:26;;;;;;;9.27;6.50;;;;;;;;;;5014897;28;20183;-62
2022/04/19 00:03:51;;;;;;;10.13;6.40;;;;;;;;;;5013486;28;20184;-62
2022/04/19 00:06:17;;;;;;;10.43;6.77;;;;;;;;;;5014461;28;20226;-62
2022/04/19 00:08:45;;;;;;;9.80;7.13;;;;;;;;;;5015210;28;20184;-60
2022/04/19 00:11:11;;;;;;;8.93;6.73;;;;;;;;;;5014774;28;20181;-62
2022/04/19 00:13:37;;;;;;;11.27;7.07;;;;;;;;;;5014393;28;20180;-62
2022/04/19 00:16:03;;;;;;;11.90;7.97;;;;;;;;;;5014084;28;20258;-62
2022/04/19 00:18:29;;;;;;;10.47;7.47;;;;;;;;;;5014637;28;20592;-62
2022/04/19 00:20:56;;;;;;;11.90;7.10;;;;;;;;;;5014577;28;20186;-62
2022/04/19 00:23:22;;;;;;;9.73;6.53;;;;;;;;;;5014509;28;20179;-62
2022/04/19 00:25:48;;;;;;;9.57;6.20;;;;;;;;;;5014577;28;20211;-62
2022/04/19 00:28:15;;;;;;;8.53;6.07;;;;;;;;;;5014141;28;20207;-63
2022/04/19 00:30:41;;;;;;;9.47;7.00;;;;;;;;;;5013655;28;20230;-64
2022/04/19 00:33:08;;;;;;;10.77;6.97;;;;;;;;;;5012688;28;20661;-64
2022/04/19 00:35:34;;;;;;;11.13;7.27;;;;;;;;;;5013678;28;20261;-64
2022/04/19 00:38:00;;;;;;;11.30;7.93;;;;;;;;;;5013783;28;20250;-64
2022/04/19 00:40:26;;;;;;;8.37;6.67;;;;;;;;;;5013761;28;20306;-61
2022/04/19 00:42:55;;;;;;;9.00;7.17;;;;;;;;;;5013874;28;20184;-64
2022/04/19 00:45:22;;;;;;;9.83;7.37;;;;;;;;;;5013732;28;20562;-64
2022/04/19 00:47:48;;;;;;;10.50;7.33;;;;;;;;;;5013818;28;20182;-64
2022/04/19 00:50:15;;;;;;;12.03;7.37;;;;;;;;;;5013959;28;20183;-64
2022/04/19 00:52:43;;;;;;;10.37;7.60;;;;;;;;;;5012691;28;20180;-64
2022/04/19 00:55:09;;;;;;;9.93;6.70;;;;;;;;;;5013607;28;20203;-64
2022/04/19 00:57:39;;;;;;;11.17;7.40;;;;;;;;;;5014081;28;20176;-63
2022/04/19 01:00:08;;;;;;;7.80;7.00;;;;;;;;;;5014236;28;20655;-64
2022/04/19 01:02:34;;;;;;;11.53;7.57;;;;;;;;;;5046018;23;20748;-64
2022/04/19 01:05:00;;;;;;;9.77;6.90;;;;;;;;;;5035803;28;20167;-66
2022/04/19 01:07:26;;;;;;;10.33;7.20;;;;;;;;;;5035199;28;20627;-66
2022/04/19 01:09:52;;;;;;;10.07;7.23;;;;;;;;;;5035510;28;20237;-65
2022/04/19 01:15:07;;;;;;;8.70;6.97;;;;;;;;;;5035756;28;20225;-66
2022/04/19 01:17:34;;;;;;;10.50;7.30;;;;;;;;;;5035529;28;20183;-65
2022/04/19 01:20:01;;;;;;;10.03;7.43;;;;;;;;;;5034300;28;20258;-66
2022/04/19 01:22:27;;;;;;;14.80;7.53;;;;;;;;;;5034982;28;20206;-67
2022/04/19 01:24:53;;;;;;;10.90;7.43;;;;;;;;;;5035366;28;20222;-63
2022/04/19 01:27:19;;;;;;;10.37;7.73;;;;;;;;;;5035277;28;20176;-67
2022/04/19 01:29:45;;;;;;;8.70;7.13;;;;;;;;;;5034755;28;20228;-66
2022/04/19 01:32:13;;;;;;;11.43;7.63;;;;;;;;;;5035593;28;20199;-65
2022/04/19 01:34:39;;;;;;;11.40;7.40;;;;;;;;;;5033655;28;20603;-66
2022/04/19 01:37:05;;;;;;;8.17;7.37;;;;;;;;;;5034810;28;20211;-65
2022/04/19 01:42:16;;;;;;;10.30;7.73;;;;;;;;;;5034570;28;20265;-65
2022/04/19 01:44:42;;;;;;;9.70;7.03;;;;;;;;;;5032955;28;20178;-65
2022/04/19 01:47:08;;;;;;;11.80;8.13;;;;;;;;;;5033349;28;20183;-64
2022/04/19 01:49:35;;;;;;;10.07;7.40;;;;;;;;;;5034741;28;20189;-65
2022/04/19 01:52:01;;;;;;;9.40;7.30;;;;;;;;;;5033117;28;20564;-64
2022/04/19 01:54:28;;;;;;;11.97;7.03;;;;;;;;;;5037050;28;20176;-62
2022/04/19 01:56:54;;;;;;;9.40;7.23;;;;;;;;;;5038014;28;20206;-64
2022/04/19 01:59:20;;;;;;;12.40;8.07;;;;;;;;;;5037962;28;20179;-64
2022/04/19 02:01:47;;;;;;;9.63;7.40;;;;;;;;;;5037763;28;20219;-65
2022/04/19 02:04:14;;;;;;;10.80;7.83;;;;;;;;;;5037364;28;20222;-64
2022/04/19 02:06:40;;;;;;;10.43;7.27;;;;;;;;;;5037386;28;20258;-64
2022/04/19 02:09:06;;;;;;;9.97;8.07;;;;;;;;;;5036153;28;20183;-65
2022/04/19 02:11:32;;;;;;;10.70;8.53;;;;;;;;;;5037243;28;20632;-65
2022/04/19 02:13:59;;;;;;;11.40;8.10;;;;;;;;;;5036354;28;20647;-64
2022/04/19 02:16:25;;;;;;;11.37;7.67;;;;;;;;;;5035557;28;20211;-64
2022/04/19 02:18:52;;;;;;;10.97;8.00;;;;;;;;;;5037091;28;20172;-65
2022/04/19 02:21:18;;;;;;;9.80;7.43;;;;;;;;;;5036900;28;20740;-64
2022/04/19 02:23:44;;;;;;;12.07;8.13;;;;;;;;;;5037038;28;20176;-65
2022/04/19 02:26:10;;;;;;;11.87;8.20;;;;;;;;;;5035644;28;20263;-64
2022/04/19 02:28:37;;;;;;;11.80;8.83;;;;;;;;;;5035533;28;20273;-64
2022/04/19 02:31:03;;;;;;;9.97;8.17;;;;;;;;;;5035630;28;20211;-64
2022/04/19 02:33:29;;;;;;;12.13;8.87;;;;;;;;;;5035683;28;20674;-64
2022/04/19 02:35:55;;;;;;;12.13;8.93;;;;;;;;;;5036401;28;20706;-65
2022/04/19 02:38:20;;;;;;;10.93;7.50;;;;;;;;;;5035061;28;20187;-65
2022/04/19 02:40:46;;;;;;;11.07;8.43;;;;;;;;;;5035073;28;20182;-64
2022/04/19 02:43:13;;;;;;;13.77;9.07;;;;;;;;;;5035357;28;20183;-64
2022/04/19 02:45:39;;;;;;;9.97;8.27;;;;;;;;;;5036953;28;20186;-65
2022/04/19 02:48:06;;;;;;;13.17;8.77;;;;;;;;;;5036116;28;20183;-64
2022/04/19 02:50:42;;;;;;;11.47;8.63;;;;;;;;;;5035231;28;20187;-64
2022/04/19 02:53:08;;;;;;;13.87;9.73;;;;;;;;;;5035175;28;20171;-65
2022/04/19 02:55:34;;;;;;;15.93;9.33;;;;;;;;;;5035072;28;20198;-64
2022/04/19 02:58:00;;;;;;;11.57;8.40;;;;;;;;;;5036830;28;20623;-64
2022/04/19 03:00:26;;;;;;;11.67;8.70;;;;;;;;;;5035083;28;20175;-64
2022/04/19 03:02:52;;;;;;;14.60;9.13;;;;;;;;;;5035087;28;20303;-64
2022/04/19 03:05:18;;;;;;;12.37;9.40;;;;;;;;;;5034915;28;20175;-65
2022/04/19 03:07:45;;;;;;;11.17;9.10;;;;;;;;;;5036490;28;20168;-65
2022/04/19 03:10:11;;;;;;;14.03;9.63;;;;;;;;;;5036106;28;20207;-65
2022/04/19 03:12:37;;;;;;;12.60;9.37;;;;;;;;;;5035900;28;20253;-65
2022/04/19 03:15:03;;;;;;;14.27;9.83;;;;;;;;;;5034786;28;20178;-64
2022/04/19 03:17:29;;;;;;;14.93;9.87;;;;;;;;;;5034857;28;20210;-64
2022/04/19 03:19:55;;;;;;;15.50;9.63;;;;;;;;;;5034751;28;20670;-65
2022/04/19 03:22:21;;;;;;;15.70;10.20;;;;;;;;;;5035839;28;20701;-65
2022/04/19 03:27:44;;;;;;;12.77;10.00;;;;;;;;;;5036569;28;20194;-65
2022/04/19 03:30:14;;;;;;;14.00;10.57;;;;;;;;;;5034870;28;20179;-66
2022/04/19 03:32:40;;;;;;;14.67;10.17;;;;;;;;;;5035708;28;20218;-65
2022/04/19 03:35:06;;;;;;;18.20;10.90;;;;;;;;;;5035929;28;20270;-65
2022/04/19 03:37:33;;;;;;;15.40;11.33;;;;;;;;;;5034229;28;20190;-64
2022/04/19 03:39:58;;;;;;;15.67;10.87;;;;;;;;;;5035731;28;20179;-65
2022/04/19 03:42:25;;;;;;;14.80;10.80;;;;;;;;;;5034658;28;20256;-64
2022/04/19 03:44:51;;;;;;;13.67;10.93;;;;;;;;;;5034428;28;20266;-64
2022/04/19 03:47:17;;;;;;;15.83;10.67;;;;;;;;;;5034269;28;20186;-64
2022/04/19 03:49:43;;;;;;;18.60;11.93;;;;;;;;;;5034275;28;20202;-64
2022/04/19 03:52:09;;;;;;;14.70;11.20;;;;;;;;;;5035609;28;20565;-65
2022/04/19 03:54:37;;;;;;;16.93;11.80;;;;;;;;;;5034201;28;20186;-64
2022/04/19 03:57:10;;;;;;;15.73;11.17;;;;;;;;;;5035838;28;20207;-65
2022/04/19 03:59:41;;;;;;;18.07;10.97;;;;;;;;;;5035434;28;20182;-63
2022/04/19 04:02:08;;;;;;;15.10;10.70;;;;;;;;;;5035123;28;20233;-64
2022/04/19 04:04:35;;;;;;;14.57;10.03;;;;;;;;;;5034143;28;20194;-65
2022/04/19 04:07:02;;;;;;;15.10;10.83;;;;;;;;;;5034113;28;20186;-65
2022/04/19 04:09:37;;;;;;;15.87;10.50;;;;;;;;;;5035518;28;20182;-64
2022/04/19 04:12:05;;;;;;;13.47;10.10;;;;;;;;;;5035482;28;20222;-64
2022/04/19 04:14:31;;;;;;;15.50;9.37;;;;;;;;;;5034160;28;20190;-64
2022/04/19 04:16:57;;;;;;;17.40;11.13;;;;;;;;;;5035238;28;20231;-64
2022/04/19 04:19:23;;;;;;;15.37;10.23;;;;;;;;;;5035537;28;20183;-64
2022/04/19 04:21:49;;;;;;;14.47;11.27;;;;;;;;;;5035339;28;20282;-64
2022/04/19 04:24:15;;;;;;;16.33;11.60;;;;;;;;;;5035160;28;20214;-64
2022/04/19 04:26:41;;;;;;;17.87;12.20;;;;;;;;;;5033580;28;20183;-65
2022/04/19 04:29:07;;;;;;;16.83;11.60;;;;;;;;;;5035344;28;20187;-64
2022/04/19 04:31:33;;;;;;;14.87;11.00;;;;;;;;;;5035000;28;20213;-64
2022/04/19 04:33:59;;;;;;;15.20;11.13;;;;;;;;;;5035210;28;20175;-64
2022/04/19 04:36:25;;;;;;;14.17;10.50;;;;;;;;;;5035199;28;20199;-62
2022/04/19 04:38:51;;;;;;;17.73;12.50;;;;;;;;;;5033525;28;20177;-62
2022/04/19 04:41:17;;;;;;;15.57;10.80;;;;;;;;;;5035114;28;20206;-64
2022/04/19 04:43:44;;;;;;;16.67;11.63;;;;;;;;;;5033515;28;20182;-64
2022/04/19 04:51:39;;;;;;;15.97;11.27;;;;;;;;;;5035171;28;20257;-65
2022/04/19 04:54:05;;;;;;;17.33;11.33;;;;;;;;;;5034839;28;20175;-64
2022/04/19 04:56:31;;;;;;;16.93;11.73;;;;;;;;;;5034532;28;20249;-63
2022/04/19 04:58:57;;;;;;;17.70;11.73;;;;;;;;;;5035844;28;20171;-64
2022/04/19 05:01:23;;;;;;;14.97;11.33;;;;;;;;;;5037790;28;20218;-63
2022/04/19 05:03:50;;;;;;;17.70;12.13;;;;;;;;;;5036844;28;20182;-64
2022/04/19 05:06:15;;;;;;;18.70;11.80;;;;;;;;;;5040018;28;20569;-64
2022/04/19 05:08:41;;;;;;;18.40;12.40;;;;;;;;;;5041248;28;20243;-64
2022/04/19 05:11:07;;;;;;;16.60;12.63;;;;;;;;;;5042551;28;20199;-64
2022/04/19 05:13:33;;;;;;;17.03;13.13;;;;;;;;;;5043585;28;20239;-64
2022/04/19 05:15:59;;;;;;;19.97;13.17;;;;;;;;;;5041311;28;20198;-63
2022/04/19 05:18:26;;;;;;;19.40;12.97;;;;;;;;;;5042302;28;20183;-64
2022/04/19 05:20:52;;;;;;;19.47;12.33;;;;;;;;;;5039491;28;20233;-63
2022/04/19 05:23:19;;;;;;;23.67;13.40;;;;;;;;;;5035784;28;20189;-63
2022/04/19 05:25:45;;;;;;;15.97;11.63;;;;;;;;;;5035013;28;20183;-64
2022/04/19 05:28:11;;;;;;;21.73;12.90;;;;;;;;;;5034933;28;20237;-64
2022/04/19 05:30:37;;;;;;;16.90;12.30;;;;;;;;;;5038533;28;20179;-63
2022/04/19 05:33:03;;;;;;;18.30;13.33;;;;;;;;;;5037036;28;20187;-64
2022/04/19 05:35:29;;;;;;;17.93;12.13;;;;;;;;;;5038115;28;20191;-63
2022/04/19 05:37:55;;;;;;;16.77;12.73;;;;;;;;;;5038050;28;20205;-64
2022/04/19 05:40:22;;;;;;;23.13;13.10;;;;;;;;;;5038450;28;20188;-64
2022/04/19 05:42:48;;;;;;;22.90;12.53;;;;;;;;;;5037715;28;20282;-61
2022/04/19 05:45:14;;;;;;;20.23;12.53;;;;;;;;;;5037687;28;20203;-64
2022/04/19 05:47:39;;;;;;;19.10;12.17;;;;;;;;;;5036573;28;20183;-64
2022/04/19 05:50:06;;;;;;;19.23;12.33;;;;;;;;;;5037921;28;20171;-64
2022/04/19 05:52:32;;;;;;;15.60;11.83;;;;;;;;;;5038093;28;20203;-64
2022/04/19 05:54:58;;;;;;;18.17;11.90;;;;;;;;;;5038069;28;20198;-64
2022/04/19 05:57:23;;;;;;;23.60;13.17;;;;;;;;;;5037655;28;20195;-65
2022/04/19 05:59:49;;;;;;;19.83;12.20;;;;;;;;;;5036222;28;20175;-64
2022/04/19 06:05:00;;;;;;;21.47;11.73;;;;;;;;;;5037716;28;20171;-64
2022/04/19 06:07:27;;;;;;;16.93;11.23;;;;;;;;;;5037066;28;20231;-64
2022/04/19 06:09:53;;;;;;;16.80;11.73;;;;;;;;;;5037604;28;20631;-64
2022/04/19 06:12:19;;;;;;;17.93;12.03;;;;;;;;;;5037221;28;20199;-64
2022/04/19 06:14:45;;;;;;;17.20;12.10;;;;;;;;;;5036364;28;20556;-63
2022/04/19 06:17:14;;;;;;;15.67;9.27;;;;;;;;;;5037611;28;20202;-64
2022/04/19 06:19:41;;;;;;;14.13;10.13;;;;;;;;;;5036910;28;20182;-63
2022/04/19 06:22:07;;;;;;;15.37;11.27;;;;;;;;;;5036957;28;20218;-64
2022/04/19 06:24:33;;;;;;;19.47;10.63;;;;;;;;;;5037108;28;20636;-64
2022/04/19 06:26:59;;;;;;;16.93;10.33;;;;;;;;;;5036943;28;20247;-64
2022/04/19 06:29:24;;;;;;;14.33;10.10;;;;;;;;;;5036753;28;20180;-63
2022/04/19 06:31:50;;;;;;;20.13;11.37;;;;;;;;;;5036694;28;20206;-65
2022/04/19 06:34:16;;;;;;;14.53;9.93;;;;;;;;;;5037219;28;20211;-62
2022/04/19 06:36:43;;;;;;;17.17;11.20;;;;;;;;;;5036842;28;20667;-65
2022/04/19 06:39:09;;;;;;;15.20;9.87;;;;;;;;;;5035511;28;20180;-63
2022/04/19 06:41:36;;;;;;;17.73;10.53;;;;;;;;;;5037179;28;20195;-62
2022/04/19 06:44:02;;;;;;;13.70;10.10;;;;;;;;;;5036896;28;20175;-62
2022/04/19 06:46:29;;;;;;;11.20;8.47;;;;;;;;;;5036852;28;20175;-62
2022/04/19 06:48:55;;;;;;;18.27;10.23;;;;;;;;;;5035993;28;20175;-63
2022/04/19 06:51:22;;;;;;;17.03;10.07;;;;;;;;;;5036606;28;20293;-62
2022/04/19 06:53:48;;;;;;;15.57;10.70;;;;;;;;;;5036712;28;20182;-63
2022/04/19 06:56:14;;;;;;;13.63;9.67;;;;;;;;;;5035342;28;20203;-63
2022/04/19 06:58:40;;;;;;;15.10;9.07;;;;;;;;;;5036448;28;20171;-65
2022/04/19 07:01:07;;;;;;;17.43;11.43;;;;;;;;;;5036657;28;20207;-63
2022/04/19 07:03:33;;;;;;;13.60;9.17;;;;;;;;;;5034918;28;20258;-65
2022/04/19 07:05:59;;;;;;;14.03;9.93;;;;;;;;;;5037132;28;20179;-63
2022/04/19 07:08:25;;;;;;;13.97;9.13;;;;;;;;;;5036852;28;20174;-63
2022/04/19 07:10:51;;;;;;;13.03;9.03;;;;;;;;;;5034669;28;20194;-65
2022/04/19 07:13:17;;;;;;;13.63;9.17;;;;;;;;;;5034965;28;20556;-63
2022/04/19 07:15:43;;;;;;;12.83;9.77;;;;;;;;;;5036028;28;20199;-65
2022/04/19 07:18:09;;;;;;;12.93;9.27;;;;;;;;;;5035155;28;20237;-63
2022/04/19 07:29:00;;;;;;;14.23;9.07;;;;;;;;;;5035107;28;20217;-65
2022/04/19 07:31:27;;;;;;;12.77;8.73;;;;;;;;;;5033252;28;20270;-65
2022/04/19 07:33:53;;;;;;;12.70;9.23;;;;;;;;;;5033287;28;20324;-66
2022/04/19 07:36:19;;;;;;;13.87;9.03;;;;;;;;;;5033162;28;20702;-65
2022/04/19 07:38:46;;;;;;;17.73;9.90;;;;;;;;;;5034696;28;20171;-65
2022/04/19 07:41:12;;;;;;;17.03;9.10;;;;;;;;;;5033106;28;20182;-66
2022/04/19 07:43:38;;;;;;;15.70;9.80;;;;;;;;;;5032939;28;20513;-66
2022/04/19 07:46:05;;;;;;;14.43;8.97;;;;;;;;;;5034454;28;20191;-66
2022/04/19 07:48:31;;;;;;;13.47;8.60;;;;;;;;;;5033115;28;20194;-66
2022/04/19 07:50:57;;;;;;;12.00;9.13;;;;;;;;;;5032307;28;20266;-66
2022/04/19 07:53:23;;;;;;;14.13;8.97;;;;;;;;;;5032936;28;20186;-66
2022/04/19 07:55:50;;;;;;;13.03;8.67;;;;;;;;;;5034112;28;20300;-66
2022/04/19 07:58:16;;;;;;;14.43;9.27;;;;;;;;;;5032960;28;20612;-64
2022/04/19 08:00:42;;;;;;;13.13;9.03;;;;;;;;;;5032769;28;20729;-65
2022/04/19 08:03:08;;;;;;;11.67;9.03;;;;;;;;;;5032638;28;20651;-65
2022/04/19 08:05:34;;;;;;;14.10;9.50;;;;;;;;;;5033779;28;20675;-65
2022/04/19 08:08:00;;;;;;;13.77;9.20;;;;;;;;;;5032478;28;20179;-65
2022/04/19 08:10:26;;;;;;;16.47;10.40;;;;;;;;;;5033958;28;20171;-65
2022/04/19 08:12:52;;;;;;;13.37;9.67;;;;;;;;;;5032353;28;20233;-65
2022/04/19 08:15:19;;;;;;;14.43;9.50;;;;;;;;;;5033499;28;20250;-65
2022/04/19 08:17:45;;;;;;;13.20;9.93;;;;;;;;;;5033661;28;20654;-64
2022/04/19 08:20:13;;;;;;;13.10;9.90;;;;;;;;;;5033500;28;20233;-65
2022/04/19 08:22:39;;;;;;;17.00;9.93;;;;;;;;;;5032372;28;20210;-64
2022/04/19 08:25:06;;;;;;;16.17;10.40;;;;;;;;;;5033355;28;20207;-64
2022/04/19 08:27:32;;;;;;;13.17;8.93;;;;;;;;;;5032193;28;20210;-64
2022/04/19 08:29:58;;;;;;;12.37;8.70;;;;;;;;;;5033333;28;20217;-64
2022/04/19 08:32:24;;;;;;;13.47;10.40;;;;;;;;;;5032079;28;20186;-64
2022/04/19 08:34:50;;;;;;;13.07;8.90;;;;;;;;;;5033350;28;20187;-64
2022/04/19 08:37:16;;;;;;;75.53;16.07;;;;;;;;;;5031848;28;20211;-64
2022/04/19 08:39:42;;;;;;;13.23;8.97;;;;;;;;;;5033288;28;20305;-64
2022/04/19 08:42:08;;;;;;;140.83;33.40;;;;;;;;;;5033246;28;20207;-64
2022/04/19 08:44:37;;;;;;;11.20;8.10;;;;;;;;;;5033240;28;20179;-65
2022/04/19 08:47:06;;;;;;;12.63;8.50;;;;;;;;;;5033548;28;20214;-64
2022/04/19 08:49:37;;;;;;;22.70;11.40;;;;;;;;;;5033432;28;20292;-65
2022/04/19 08:52:03;;;;;;;12.20;8.50;;;;;;;;;;5033602;28;20170;-65
2022/04/19 08:57:32;;;;;;;16.20;8.60;;;;;;;;;;5032920;28;20222;-65
2022/04/19 08:59:59;;;;;;;11.67;7.40;;;;;;;;;;5033272;28;20209;-64
2022/04/19 09:02:26;;;;;;;11.10;7.27;;;;;;;;;;5033042;28;20172;-64
2022/04/19 09:04:52;;;;;;;10.90;7.43;;;;;;;;;;5036311;28;20183;-64
2022/04/19 09:07:20;;;;;;;12.17;6.43;;;;;;;;;;5035790;28;20202;-65
2022/04/19 09:09:59;;;;;;;7.07;5.63;;;;;;;;;;5035757;28;20183;-64
2022/04/19 09:12:26;;;;;;;9.17;5.37;;;;;;;;;;5037518;28;20560;-64
2022/04/19 09:14:56;;;;;;;7.93;6.20;;;;;;;;;;5037125;28;20186;-64
2022/04/19 09:17:35;;;;;;;5.27;4.73;;;;;;;;;;5037021;28;20206;-65
2022/04/19 09:20:11;;;;;;;8.33;6.13;;;;;;;;;;5036965;28;20175;-64
2022/04/19 09:22:37;;;;;;;7.10;5.13;;;;;;;;;;5037274;28;20174;-65
2022/04/19 09:25:19;;;;;;;5.40;4.10;;;;;;;;;;5035541;28;20666;-65
2022/04/19 09:27:46;;;;;;;5.10;4.50;;;;;;;;;;5035514;28;20222;-65
2022/04/19 09:30:23;;;;;;;8.00;4.93;;;;;;;;;;5036811;28;20186;-64
2022/04/19 09:33:05;;;;;;;4.97;4.47;;;;;;;;;;5036528;28;20186;-64
2022/04/19 09:35:43;;;;;;;7.57;4.60;;;;;;;;;;5037336;28;20205;-65
2022/04/19 09:38:09;;;;;;;6.23;4.90;;;;;;;;;;5037742;28;20192;-64
2022/04/19 09:40:42;;;;;;;5.60;4.60;;;;;;;;;;5036216;28;20175;-66
2022/04/19 09:43:16;;;;;;;8.70;4.63;;;;;;;;;;5035293;28;20545;-65
2022/04/19 09:45:46;;;;;;;4.80;4.30;;;;;;;;;;5036404;28;20285;-64
2022/04/19 09:48:22;;;;;;;6.27;5.10;;;;;;;;;;5036473;28;20183;-64
2022/04/19 09:50:49;;;;;;;5.37;4.73;;;;;;;;;;5036215;28;20171;-65
2022/04/19 09:53:19;;;;;;;6.13;4.73;;;;;;;;;;5036192;28;20175;-64
2022/04/19 09:55:49;;;;;;;6.50;5.40;;;;;;;;;;5034689;28;20307;-64
2022/04/19 09:58:15;;;;;;;7.03;5.37;;;;;;;;;;5036341;28;20659;-64
2022/04/19 10:00:43;;;;;;;7.47;5.37;;;;;;;;;;5036044;28;20248;-64
2022/04/19 10:08:37;;;;;;;9.67;5.17;;;;;;;;;;5036647;28;20171;-64
2022/04/19 10:11:03;;;;;;;6.13;4.77;;;;;;;;;;5036591;28;20182;-64
2022/04/19 10:13:29;;;;;;;8.73;6.37;;;;;;;;;;5036212;28;20186;-64
2022/04/19 10:15:55;;;;;;;5.77;4.77;;;;;;;;;;5035166;28;20207;-64
2022/04/19 10:18:21;;;;;;;9.40;5.13;;;;;;;;;;5036356;28;20550;-64
2022/04/19 10:20:54;;;;;;;6.17;5.17;;;;;;;;;;5035851;28;20763;-64
2022/04/19 10:23:21;;;;;;;10.17;4.93;;;;;;;;;;5034624;28;20244;-64
2022/04/19 10:25:48;;;;;;;10.50;5.60;;;;;;;;;;5035565;28;20768;-65
2022/04/19 10:28:35;;;;;;;9.00;5.60;;;;;;;;;;5034407;28;20274;-64
2022/04/19 10:31:02;;;;;;;8.03;6.00;;;;;;;;;;5034443;28;20182;-64
2022/04/19 10:33:39;;;;;;;8.83;5.50;;;;;;;;;;5035619;28;20548;-65
2022/04/19 10:36:12;;;;;;;7.63;5.40;;;;;;;;;;5035711;28;20225;-64
2022/04/19 10:38:38;;;;;;;7.73;6.03;;;;;;;;;;5035422;28;20593;-64
2022/04/19 10:41:04;;;;;;;10.53;6.20;;;;;;;;;;5035693;28;20179;-65
2022/04/19 10:43:31;;;;;;;8.37;5.17;;;;;;;;;;5034258;28;20175;-64
2022/04/19 10:46:15;;;;;;;7.17;5.53;;;;;;;;;;5035465;28;20746;-64
2022/04/19 10:49:01;;;;;;;7.47;5.30;;;;;;;;;;5035519;28;20189;-64
2022/04/19 10:51:27;;;;;;;9.63;4.57;;;;;;;;;;5035180;28;20193;-64
2022/04/19 10:53:53;;;;;;;6.43;4.80;;;;;;;;;;5035124;28;20220;-64
2022/04/19 10:56:19;;;;;;;6.87;4.60;;;;;;;;;;5033758;28;20250;-65
2022/04/19 10:58:45;;;;;;;8.33;4.50;;;;;;;;;;5035204;28;20175;-64
2022/04/19 11:01:28;;;;;;;7.53;4.67;;;;;;;;;;5035351;28;20186;-64
2022/04/19 11:03:55;;;;;;;7.23;4.83;;;;;;;;;;5035235;28;20178;-65
2022/04/19 11:06:31;;;;;;;6.33;4.90;;;;;;;;;;5034969;28;20199;-64
2022/04/19 11:09:15;;;;;;;6.40;4.97;;;;;;;;;;5033664;28;20273;-65
2022/04/19 11:11:48;;;;;;;6.07;4.63;;;;;;;;;;5035028;28;20159;-65
2022/04/19 11:14:20;;;;;;;6.83;4.93;;;;;;;;;;5033710;28;20667;-63
2022/04/19 11:16:56;;;;;;;7.17;5.43;;;;;;;;;;5033464;28;20222;-64
2022/04/19 11:19:23;;;;;;;7.83;4.87;;;;;;;;;;5034763;28;20594;-63
2022/04/19 11:21:53;;;;;;;7.47;4.80;;;;;;;;;;5035002;28;20263;-62
2022/04/19 11:24:38;;;;;;;6.10;4.27;;;;;;;;;;5035057;28;20643;-63
2022/04/19 11:27:04;;;;;;;5.53;4.33;;;;;;;;;;5032338;28;20323;-63
2022/04/19 11:29:47;;;;;;;7.17;4.60;;;;;;;;;;5034564;28;20209;-63
2022/04/19 11:32:13;;;;;;;7.70;4.20;;;;;;;;;;5034688;28;20282;-63
2022/04/19 11:34:39;;;;;;;6.93;4.60;;;;;;;;;;5034475;28;20175;-63
2022/04/19 11:37:05;;;;;;;8.50;4.57;;;;;;;;;;5034916;28;20717;-64
2022/04/19 11:47:56;;;;;;;6.57;4.40;;;;;;;;;;5034544;28;20198;-64
2022/04/19 11:50:25;;;;;;;5.83;3.90;;;;;;;;;;5034381;28;20178;-63
2022/04/19 11:52:51;;;;;;;8.13;4.37;;;;;;;;;;5032818;28;20210;-63
2022/04/19 11:55:19;;;;;;;4.47;3.33;;;;;;;;;;5034490;28;20673;-63
2022/04/19 11:57:45;;;;;;;6.67;4.30;;;;;;;;;;5034054;28;20198;-63
2022/04/19 12:00:16;;;;;;;5.77;3.50;;;;;;;;;;5034034;28;20178;-63
2022/04/19 12:02:42;;;;;;;6.20;3.90;;;;;;;;;;5034019;28;20156;-63
2022/04/19 12:05:08;;;;;;;6.23;3.83;;;;;;;;;;5034007;28;20175;-63
2022/04/19 12:07:45;;;;;;;5.93;4.80;;;;;;;;;;5032602;28;20202;-63
2022/04/19 12:10:11;;;;;;;6.97;4.87;;;;;;;;;;5032638;28;20624;-64
2022/04/19 12:12:37;;;;;;;6.77;4.50;;;;;;;;;;5032488;28;20183;-64
2022/04/19 12:15:03;;;;;;;12.83;4.50;;;;;;;;;;5033832;28;20175;-63
2022/04/19 12:17:30;;;;;;;7.70;4.67;;;;;;;;;;5033520;28;20238;-64
2022/04/19 12:20:03;;;;;;;6.53;4.33;;;;;;;;;;5032360;28;20179;-64
2022/04/19 12:22:32;;;;;;;4.77;3.20;;;;;;;;;;5032428;28;20209;-63
2022/04/19 12:24:59;;;;;;;5.57;3.73;;;;;;;;;;5033589;28;20186;-64
2022/04/19 12:27:29;;;;;;;4.93;3.77;;;;;;;;;;5032164;28;20211;-65
2022/04/19 12:30:14;;;;;;;5.13;3.83;;;;;;;;;;5033347;28;20175;-64
2022/04/19 12:32:59;;;;;;;4.90;3.50;;;;;;;;;;5032463;28;20270;-63
2022/04/19 12:35:26;;;;;;;4.60;3.50;;;;;;;;;;5032230;28;20202;-63
2022/04/19 12:38:21;;;;;;;5.03;4.10;;;;;;;;;;5032470;28;20318;-64
2022/04/19 12:40:47;;;;;;;8.37;4.60;;;;;;;;;;5033785;28;20174;-64
2022/04/19 12:43:18;;;;;;;7.50;4.53;;;;;;;;;;5033391;28;20183;-64
2022/04/19 12:45:45;;;;;;;6.80;4.30;;;;;;;;;;5033419;28;20206;-63
2022/04/19 12:48:22;;;;;;;5.47;4.43;;;;;;;;;;5032039;28;20183;-64
2022/04/19 12:50:48;;;;;;;5.17;4.50;;;;;;;;;;5033393;28;20652;-63
2022/04/19 12:53:24;;;;;;;7.00;3.97;;;;;;;;;;5033537;28;20225;-65
2022/04/19 12:55:49;;;;;;;5.10;4.20;;;;;;;;;;5033164;28;20214;-63
2022/04/19 12:58:16;;;;;;;4.60;3.90;;;;;;;;;;5033312;28;20182;-64
2022/04/19 13:00:41;;;;;;;5.80;4.03;;;;;;;;;;5032024;28;20192;-64
2022/04/19 13:03:07;;;;;;;5.23;3.83;;;;;;;;;;5032018;28;20179;-63
2022/04/19 13:13:47;;;;;;;3.50;3.00;;;;;;;;;;5034198;28;20610;-63
2022/04/19 13:16:14;;;;;;;3.93;3.07;;;;;;;;;;5032181;28;20231;-64
2022/04/19 13:18:40;;;;;;;3.17;2.87;;;;;;;;;;5033160;28;20175;-63
2022/04/19 13:21:07;;;;;;;3.90;3.23;;;;;;;;;;5033583;28;20178;-65
2022/04/19 13:23:33;;;;;;;5.00;3.23;;;;;;;;;;5031824;28;20179;-64
2022/04/19 13:25:59;;;;;;;3.40;3.00;;;;;;;;;;5033075;28;20223;-63
2022/04/19 13:28:26;;;;;;;5.20;3.13;;;;;;;;;;5032940;28;20179;-63
2022/04/19 13:30:55;;;;;;;6.10;3.40;;;;;;;;;;5031707;28;20187;-64
2022/04/19 13:33:21;;;;;;;4.03;3.13;;;;;;;;;;5032756;28;20179;-63
2022/04/19 13:35:47;;;;;;;4.53;4.03;;;;;;;;;;5032932;28;20194;-64
2022/04/19 13:38:25;;;;;;;3.23;2.93;;;;;;;;;;5031746;28;20245;-65
2022/04/19 13:40:51;;;;;;;4.30;3.10;;;;;;;;;;5033209;28;20615;-64
2022/04/19 13:43:17;;;;;;;3.70;3.27;;;;;;;;;;5032816;28;20636;-64
2022/04/19 13:45:43;;;;;;;2.80;2.60;;;;;;;;;;5031576;28;20207;-64
2022/04/19 13:48:09;;;;;;;4.77;3.77;;;;;;;;;;5032796;28;20708;-63
2022/04/19 13:50:35;;;;;;;5.43;3.80;;;;;;;;;;5035332;28;20175;-64
2022/04/19 13:53:01;;;;;;;5.20;4.03;;;;;;;;;;5035365;28;20186;-63
2022/04/19 13:55:28;;;;;;;6.17;2.60;;;;;;;;;;5036690;28;20195;-64
2022/04/19 13:57:55;;;;;;;3.43;2.50;;;;;;;;;;5036362;28;20293;-63
2022/04/19 14:00:23;;;;;;;3.17;2.87;;;;;;;;;;5036446;28;20179;-63
2022/04/19 14:02:49;;;;;;;3.43;3.10;;;;;;;;;;5036419;28;20266;-64
2022/04/19 14:05:16;;;;;;;3.17;2.87;;;;;;;;;;5035064;28;20217;-63
2022/04/19 14:07:42;;;;;;;3.63;3.17;;;;;;;;;;5036510;28;20647;-64
2022/04/19 14:10:08;;;;;;;4.50;3.50;;;;;;;;;;5034921;28;20182;-63
2022/04/19 14:12:34;;;;;;;3.50;3.20;;;;;;;;;;5036198;28;20187;-64
2022/04/19 14:15:00;;;;;;;3.80;3.30;;;;;;;;;;5034825;28;20714;-62
2022/04/19 14:17:26;;;;;;;4.00;3.47;;;;;;;;;;5042401;22;20309;-64
2022/04/19 14:19:52;;;;;;;4.00;3.00;;;;;;;;;;5014914;28;20183;-64
2022/04/19 14:22:19;;;;;;;3.33;2.87;;;;;;;;;;5016010;28;20172;-64
2022/04/19 14:24:45;;;;;;;4.90;3.13;;;;;;;;;;5016156;28;20183;-64
2022/04/19 14:27:11;;;;;;;4.17;2.80;;;;;;;;;;5015912;28;20204;-63
2022/04/19 14:35:06;;;;;;;4.73;3.10;;;;;;;;;;5016270;28;20222;-63
2022/04/19 14:37:32;;;;;;;2.20;2.00;;;;;;;;;;5015682;28;20218;-63
2022/04/19 14:40:00;;;;;;;2.50;2.17;;;;;;;;;;5014729;28;20271;-64
2022/04/19 14:42:26;;;;;;;2.90;2.40;;;;;;;;;;5014617;28;20183;-61
2022/04/19 14:44:52;;;;;;;2.63;2.33;;;;;;;;;;5014869;28;20177;-61
2022/04/19 14:47:18;;;;;;;2.60;2.40;;;;;;;;;;5017613;28;20203;-62
2022/04/19 14:49:44;;;;;;;2.50;2.30;;;;;;;;;;5017485;28;20172;-62
2022/04/19 14:52:18;;;;;;;3.00;2.70;;;;;;;;;;5015310;28;20233;-60
2022/04/19 14:54:48;;;;;;;4.47;2.73;;;;;;;;;;5014533;28;20230;-61
2022/04/19 14:57:15;;;;;;;2.97;2.53;;;;;;;;;;5014464;28;20273;-60
2022/04/19 14:59:45;;;;;;;2.60;2.40;;;;;;;;;;5014351;28;20225;-62
2022/04/19 15:02:14;;;;;;;2.90;2.70;;;;;;;;;;5015798;28;20229;-62
2022/04/19 15:04:40;;;;;;;5.47;2.60;;;;;;;;;;5014258;28;20247;-62
2022/04/19 15:07:06;;;;;;;2.73;2.20;;;;;;;;;;5016055;28;20574;-62
2022/04/19 15:09:32;;;;;;;4.57;2.27;;;;;;;;;;5015640;28;20183;-62
2022/04/19 15:12:02;;;;;;;2.17;1.97;;;;;;;;;;5015542;28;20180;-61
2022/04/19 15:14:28;;;;;;;4.57;2.37;;;;;;;;;;5014300;28;20609;-62
2022/04/19 15:16:55;;;;;;;2.50;2.30;;;;;;;;;;5015186;28;20261;-61
2022/04/19 15:19:20;;;;;;;2.90;2.60;;;;;;;;;;5015539;28;20650;-62
2022/04/19 15:21:46;;;;;;;3.23;2.73;;;;;;;;;;5013916;28;20274;-61
2022/04/19 15:24:12;;;;;;;5.43;3.37;;;;;;;;;;5013976;28;20180;-62
2022/04/19 15:26:39;;;;;;;4.57;3.03;;;;;;;;;;5015522;28;20218;-62
2022/04/19 15:29:05;;;;;;;3.40;2.73;;;;;;;;;;5013881;28;20194;-62
2022/04/19 15:31:31;;;;;;;2.93;2.20;;;;;;;;;;5015182;28;20195;-62